sensor_id;sensor_type;location;lat;lon;timestamp;pressure;altitude;pressure_sealevel;temperature
32039;BMP280;18549;42.286;22.688;2024-02-26T00:00:49;95142.97;;;12.57
32039;BMP280;18549;42.286;22.688;2024-02-26T00:03:18;95144.56;;;12.58
32039;BMP280;18549;42.286;22.688;2024-02-26T00:05:46;95149.53;;;12.58
32039;BMP280;18549;42.286;22.688;2024-02-26T00:08:16;95154.88;;;12.54
32039;BMP280;18549;42.286;22.688;2024-02-26T00:10:46;95155.66;;;12.54
32039;BMP280;18549;42.286;22.688;2024-02-26T00:13:15;95152.91;;;12.57
32039;BMP280;18549;42.286;22.688;2024-02-26T00:15:44;95153.84;;;12.56
32039;BMP280;18549;42.286;22.688;2024-02-26T00:18:10;95151.59;;;12.53
32039;BMP280;18549;42.286;22.688;2024-02-26T00:20:38;95149.56;;;12.48
32039;BMP280;18549;42.286;22.688;2024-02-26T00:23:08;95153.00;;;12.36
32039;BMP280;18549;42.286;22.688;2024-02-26T00:25:35;95152.34;;;12.34
32039;BMP280;18549;42.286;22.688;2024-02-26T00:28:02;95151.88;;;12.40
32039;BMP280;18549;42.286;22.688;2024-02-26T00:30:29;95162.34;;;12.43
32039;BMP280;18549;42.286;22.688;2024-02-26T00:33:00;95153.75;;;12.47
32039;BMP280;18549;42.286;22.688;2024-02-26T00:35:28;95153.66;;;12.49
32039;BMP280;18549;42.286;22.688;2024-02-26T00:37:59;95157.94;;;12.47
32039;BMP280;18549;42.286;22.688;2024-02-26T00:40:29;95155.31;;;12.48
32039;BMP280;18549;42.286;22.688;2024-02-26T00:43:04;95152.72;;;12.50
32039;BMP280;18549;42.286;22.688;2024-02-26T00:45:31;95145.37;;;12.48
32039;BMP280;18549;42.286;22.688;2024-02-26T00:48:02;95140.41;;;12.48
32039;BMP280;18549;42.286;22.688;2024-02-26T00:50:30;95136.47;;;12.46
32039;BMP280;18549;42.286;22.688;2024-02-26T00:52:58;95135.63;;;12.36
32039;BMP280;18549;42.286;22.688;2024-02-26T00:55:25;95143.88;;;12.25
32039;BMP280;18549;42.286;22.688;2024-02-26T00:57:53;95134.19;;;12.22
32039;BMP280;18549;42.286;22.688;2024-02-26T01:00:20;95137.59;;;12.21
32039;BMP280;18549;42.286;22.688;2024-02-26T01:02:47;95137.16;;;12.17
32039;BMP280;18549;42.286;22.688;2024-02-26T01:05:17;95135.88;;;12.22
32039;BMP280;18549;42.286;22.688;2024-02-26T01:07:52;95124.13;;;12.24
32039;BMP280;18549;42.286;22.688;2024-02-26T01:10:22;95126.50;;;12.25
32039;BMP280;18549;42.286;22.688;2024-02-26T01:12:49;95125.16;;;12.21
32039;BMP280;18549;42.286;22.688;2024-02-26T01:15:16;95122.19;;;12.27
32039;BMP280;18549;42.286;22.688;2024-02-26T01:17:47;95122.19;;;12.27
32039;BMP280;18549;42.286;22.688;2024-02-26T01:20:17;95122.09;;;12.29
32039;BMP280;18549;42.286;22.688;2024-02-26T01:22:46;95127.41;;;12.24
32039;BMP280;18549;42.286;22.688;2024-02-26T01:25:14;95118.94;;;12.27
32039;BMP280;18549;42.286;22.688;2024-02-26T01:27:49;95120.63;;;12.26
32039;BMP280;18549;42.286;22.688;2024-02-26T01:30:17;95115.31;;;12.31
32039;BMP280;18549;42.286;22.688;2024-02-26T01:32:46;95111.00;;;12.33
32039;BMP280;18549;42.286;22.688;2024-02-26T01:35:18;95111.69;;;12.35
32039;BMP280;18549;42.286;22.688;2024-02-26T01:37:47;95120.28;;;12.31
32039;BMP280;18549;42.286;22.688;2024-02-26T01:40:15;95110.34;;;12.31
32039;BMP280;18549;42.286;22.688;2024-02-26T01:42:46;95103.41;;;12.34
32039;BMP280;18549;42.286;22.688;2024-02-26T01:45:16;95104.88;;;12.37
32039;BMP280;18549;42.286;22.688;2024-02-26T01:47:50;95112.56;;;12.34
32039;BMP280;18549;42.286;22.688;2024-02-26T01:50:19;95107.59;;;12.34
32039;BMP280;18549;42.286;22.688;2024-02-26T01:52:49;95109.19;;;12.35
32039;BMP280;18549;42.286;22.688;2024-02-26T01:55:17;95102.63;;;12.34
32039;BMP280;18549;42.286;22.688;2024-02-26T01:57:48;95096.78;;;12.35
32039;BMP280;18549;42.286;22.688;2024-02-26T02:00:19;95097.78;;;12.32
32039;BMP280;18549;42.286;22.688;2024-02-26T02:02:46;95089.47;;;12.22
32039;BMP280;18549;42.286;22.688;2024-02-26T02:05:36;95104.62;;;12.19
32039;BMP280;18549;42.286;22.688;2024-02-26T02:08:12;95095.94;;;12.14
32039;BMP280;18549;42.286;22.688;2024-02-26T02:10:41;95093.69;;;12.11
32039;BMP280;18549;42.286;22.688;2024-02-26T02:13:15;95095.16;;;12.14
32039;BMP280;18549;42.286;22.688;2024-02-26T02:15:44;95092.13;;;12.10
32039;BMP280;18549;42.286;22.688;2024-02-26T02:18:14;95090.16;;;12.14
32039;BMP280;18549;42.286;22.688;2024-02-26T02:20:44;95100.44;;;12.20
32039;BMP280;18549;42.286;22.688;2024-02-26T02:23:13;95089.34;;;12.24
32039;BMP280;18549;42.286;22.688;2024-02-26T02:25:44;95090.03;;;12.26
32039;BMP280;18549;42.286;22.688;2024-02-26T02:28:26;95097.34;;;12.27
32039;BMP280;18549;42.286;22.688;2024-02-26T02:30:54;95093.19;;;12.28
32039;BMP280;18549;42.286;22.688;2024-02-26T02:33:26;95085.28;;;12.23
32039;BMP280;18549;42.286;22.688;2024-02-26T02:35:55;95092.63;;;12.24
32039;BMP280;18549;42.286;22.688;2024-02-26T02:38:29;95090.91;;;12.25
32039;BMP280;18549;42.286;22.688;2024-02-26T02:40:57;95091.69;;;12.25
32039;BMP280;18549;42.286;22.688;2024-02-26T02:43:26;95095.22;;;12.23
32039;BMP280;18549;42.286;22.688;2024-02-26T02:45:55;95088.69;;;12.22
32039;BMP280;18549;42.286;22.688;2024-02-26T02:48:23;95088.69;;;12.22
32039;BMP280;18549;42.286;22.688;2024-02-26T02:50:52;95087.63;;;12.04
32039;BMP280;18549;42.286;22.688;2024-02-26T02:53:37;95092.94;;;12.00
32039;BMP280;18549;42.286;22.688;2024-02-26T02:56:07;95096.78;;;11.93
32039;BMP280;18549;42.286;22.688;2024-02-26T02:58:35;95085.28;;;11.92
32039;BMP280;18549;42.286;22.688;2024-02-26T03:01:03;95085.75;;;11.86
32039;BMP280;18549;42.286;22.688;2024-02-26T03:03:30;95093.88;;;11.77
32039;BMP280;18549;42.286;22.688;2024-02-26T03:05:57;95090.88;;;11.74
32039;BMP280;18549;42.286;22.688;2024-02-26T03:08:25;95086.22;;;11.80
32039;BMP280;18549;42.286;22.688;2024-02-26T03:11:04;95088.56;;;11.82
32039;BMP280;18549;42.286;22.688;2024-02-26T03:13:32;95087.78;;;11.81
32039;BMP280;18549;42.286;22.688;2024-02-26T03:16:04;95086.78;;;11.84
32039;BMP280;18549;42.286;22.688;2024-02-26T03:18:31;95087.69;;;11.83
32039;BMP280;18549;42.286;22.688;2024-02-26T03:20:59;95090.16;;;11.83
32039;BMP280;18549;42.286;22.688;2024-02-26T03:23:26;95093.69;;;11.80
32039;BMP280;18549;42.286;22.688;2024-02-26T03:25:53;95089.25;;;11.73
32039;BMP280;18549;42.286;22.688;2024-02-26T03:28:27;95081.03;;;11.72
32039;BMP280;18549;42.286;22.688;2024-02-26T03:30:55;95091.44;;;11.66
32039;BMP280;18549;42.286;22.688;2024-02-26T03:33:23;95080.50;;;11.69
32039;BMP280;18549;42.286;22.688;2024-02-26T03:35:50;95074.50;;;11.71
32039;BMP280;18549;42.286;22.688;2024-02-26T03:38:19;95068.53;;;11.74
32039;BMP280;18549;42.286;22.688;2024-02-26T03:40:46;95065.25;;;11.73
32039;BMP280;18549;42.286;22.688;2024-02-26T03:43:16;95065.38;;;11.72
32039;BMP280;18549;42.286;22.688;2024-02-26T03:45:48;95074.63;;;11.59
32039;BMP280;18549;42.286;22.688;2024-02-26T03:48:21;95073.94;;;11.57
32039;BMP280;18549;42.286;22.688;2024-02-26T03:50:50;95064.03;;;11.57
32039;BMP280;18549;42.286;22.688;2024-02-26T03:53:17;95072.28;;;11.57
32039;BMP280;18549;42.286;22.688;2024-02-26T03:55:46;95065.50;;;11.59
32039;BMP280;18549;42.286;22.688;2024-02-26T03:58:13;95065.03;;;11.65
32039;BMP280;18549;42.286;22.688;2024-02-26T04:00:49;95066.62;;;11.66
32039;BMP280;18549;42.286;22.688;2024-02-26T04:03:31;95064.16;;;11.55
32039;BMP280;18549;42.286;22.688;2024-02-26T04:05:59;95064.25;;;11.54
32039;BMP280;18549;42.286;22.688;2024-02-26T04:08:28;95060.75;;;11.56
32039;BMP280;18549;42.286;22.688;2024-02-26T04:10:55;95064.03;;;11.57
32039;BMP280;18549;42.286;22.688;2024-02-26T04:13:22;95068.09;;;11.58
32039;BMP280;18549;42.286;22.688;2024-02-26T04:15:51;95076.22;;;11.60
32039;BMP280;18549;42.286;22.688;2024-02-26T04:18:19;95066.16;;;11.61
32039;BMP280;18549;42.286;22.688;2024-02-26T04:21:01;95061.09;;;11.63
32039;BMP280;18549;42.286;22.688;2024-02-26T04:23:29;95068.53;;;11.63
32039;BMP280;18549;42.286;22.688;2024-02-26T04:25:59;95065.12;;;11.64
32039;BMP280;18549;42.286;22.688;2024-02-26T04:28:26;95051.84;;;11.65
32039;BMP280;18549;42.286;22.688;2024-02-26T04:31:07;95059.28;;;11.65
32039;BMP280;18549;42.286;22.688;2024-02-26T04:33:34;95056.47;;;11.58
32039;BMP280;18549;42.286;22.688;2024-02-26T04:36:12;95060.16;;;11.64
32039;BMP280;18549;42.286;22.688;2024-02-26T04:38:40;95063.56;;;11.63
32039;BMP280;18549;42.286;22.688;2024-02-26T04:41:09;95063.25;;;11.56
32039;BMP280;18549;42.286;22.688;2024-02-26T04:43:36;95063.25;;;11.56
32039;BMP280;18549;42.286;22.688;2024-02-26T04:46:09;95064.25;;;11.54
32039;BMP280;18549;42.286;22.688;2024-02-26T04:48:39;95060.66;;;11.58
32039;BMP280;18549;42.286;22.688;2024-02-26T04:51:07;95055.44;;;11.61
32039;BMP280;18549;42.286;22.688;2024-02-26T04:53:36;95059.53;;;11.62
32039;BMP280;18549;42.286;22.688;2024-02-26T04:56:04;95066.72;;;11.65
32039;BMP280;18549;42.286;22.688;2024-02-26T04:58:39;95067.63;;;11.64
32039;BMP280;18549;42.286;22.688;2024-02-26T05:01:06;95069.44;;;11.62
32039;BMP280;18549;42.286;22.688;2024-02-26T05:03:39;95077.34;;;11.56
32039;BMP280;18549;42.286;22.688;2024-02-26T05:06:07;95076.81;;;11.53
32039;BMP280;18549;42.286;22.688;2024-02-26T05:08:36;95070.94;;;11.43
32039;BMP280;18549;42.286;22.688;2024-02-26T05:11:06;95082.56;;;11.42
32039;BMP280;18549;42.286;22.688;2024-02-26T05:13:36;95071.91;;;11.40
32039;BMP280;18549;42.286;22.688;2024-02-26T05:16:05;95079.25;;;11.20
32039;BMP280;18549;42.286;22.688;2024-02-26T05:18:32;95088.75;;;11.26
32039;BMP280;18549;42.286;22.688;2024-02-26T05:21:00;95086.59;;;11.32
32039;BMP280;18549;42.286;22.688;2024-02-26T05:23:29;95092.87;;;11.36
32039;BMP280;18549;42.286;22.688;2024-02-26T05:26:00;95090.41;;;11.36
32039;BMP280;18549;42.286;22.688;2024-02-26T05:28:26;95087.28;;;11.34
32039;BMP280;18549;42.286;22.688;2024-02-26T05:30:55;95079.69;;;11.36
32039;BMP280;18549;42.286;22.688;2024-02-26T05:33:22;95092.47;;;11.42
32039;BMP280;18549;42.286;22.688;2024-02-26T05:35:57;95100.00;;;11.41
32039;BMP280;18549;42.286;22.688;2024-02-26T05:38:30;95103.28;;;11.41
32039;BMP280;18549;42.286;22.688;2024-02-26T05:40:59;95106.66;;;11.40
32039;BMP280;18549;42.286;22.688;2024-02-26T05:43:28;95113.66;;;11.35
32039;BMP280;18549;42.286;22.688;2024-02-26T05:45:56;95112.53;;;11.28
32039;BMP280;18549;42.286;22.688;2024-02-26T05:48:25;95118.16;;;11.19
32039;BMP280;18549;42.286;22.688;2024-02-26T05:50:52;95124.59;;;11.22
32039;BMP280;18549;42.286;22.688;2024-02-26T05:53:24;95117.72;;;11.25
32039;BMP280;18549;42.286;22.688;2024-02-26T05:56:01;95124.00;;;11.29
32039;BMP280;18549;42.286;22.688;2024-02-26T05:58:29;95117.16;;;11.33
32039;BMP280;18549;42.286;22.688;2024-02-26T06:00:55;95125.03;;;11.38
32039;BMP280;18549;42.286;22.688;2024-02-26T06:03:23;95122.31;;;11.41
32039;BMP280;18549;42.286;22.688;2024-02-26T06:05:51;95127.91;;;11.44
32039;BMP280;18549;42.286;22.688;2024-02-26T06:08:19;95127.91;;;11.44
32039;BMP280;18549;42.286;22.688;2024-02-26T06:10:48;95128.34;;;11.49
32039;BMP280;18549;42.286;22.688;2024-02-26T06:13:21;95124.28;;;11.48
32039;BMP280;18549;42.286;22.688;2024-02-26T06:15:49;95125.19;;;11.47
32039;BMP280;18549;42.286;22.688;2024-02-26T06:18:15;95118.41;;;11.49
32039;BMP280;18549;42.286;22.688;2024-02-26T06:20:44;95120.91;;;11.49
32039;BMP280;18549;42.286;22.688;2024-02-26T06:23:11;95118.31;;;11.51
32039;BMP280;18549;42.286;22.688;2024-02-26T06:25:39;95124.50;;;11.56
32039;BMP280;18549;42.286;22.688;2024-02-26T06:28:08;95120.22;;;11.58
32039;BMP280;18549;42.286;22.688;2024-02-26T06:30:42;95122.47;;;11.61
32039;BMP280;18549;42.286;22.688;2024-02-26T06:33:10;95125.63;;;11.63
32039;BMP280;18549;42.286;22.688;2024-02-26T06:35:37;95125.38;;;11.66
32039;BMP280;18549;42.286;22.688;2024-02-26T06:38:05;95126.06;;;11.68
32039;BMP280;18549;42.286;22.688;2024-02-26T06:40:35;95130.00;;;11.70
32039;BMP280;18549;42.286;22.688;2024-02-26T06:43:03;95125.03;;;11.70
32039;BMP280;18549;42.286;22.688;2024-02-26T06:45:31;95135.53;;;11.74
32039;BMP280;18549;42.286;22.688;2024-02-26T06:48:00;95130.34;;;11.77
32039;BMP280;18549;42.286;22.688;2024-02-26T06:50:27;95133.50;;;11.79
32039;BMP280;18549;42.286;22.688;2024-02-26T06:52:54;95128.53;;;11.79
32039;BMP280;18549;42.286;22.688;2024-02-26T06:55:22;95139.94;;;11.81
32039;BMP280;18549;42.286;22.688;2024-02-26T06:57:50;95136.44;;;11.84
32039;BMP280;18549;42.286;22.688;2024-02-26T07:00:18;95145.47;;;11.85
32039;BMP280;18549;42.286;22.688;2024-02-26T07:02:45;95137.87;;;11.86
32039;BMP280;18549;42.286;22.688;2024-02-26T07:05:14;95140.13;;;11.89
32039;BMP280;18549;42.286;22.688;2024-02-26T07:07:42;95147.81;;;11.86
32039;BMP280;18549;42.286;22.688;2024-02-26T07:10:10;95149.88;;;11.81
32039;BMP280;18549;42.286;22.688;2024-02-26T07:12:38;95152.44;;;11.80
32039;BMP280;18549;42.286;22.688;2024-02-26T07:15:06;95151.00;;;11.77
32039;BMP280;18549;42.286;22.688;2024-02-26T07:17:37;95149.09;;;11.70
32039;BMP280;18549;42.286;22.688;2024-02-26T07:20:08;95153.81;;;11.73
32039;BMP280;18549;42.286;22.688;2024-02-26T07:22:41;95148.41;;;11.79
32039;BMP280;18549;42.286;22.688;2024-02-26T07:25:09;95145.47;;;11.85
32039;BMP280;18549;42.286;22.688;2024-02-26T07:27:39;95154.81;;;11.92
32039;BMP280;18549;42.286;22.688;2024-02-26T07:30:07;95158.75;;;11.94
32039;BMP280;18549;42.286;22.688;2024-02-26T07:32:35;95154.03;;;11.91
32039;BMP280;18549;42.286;22.688;2024-02-26T07:35:02;95153.69;;;11.96
32039;BMP280;18549;42.286;22.688;2024-02-26T07:37:29;95152.44;;;12.01
32039;BMP280;18549;42.286;22.688;2024-02-26T07:39:57;95150.38;;;12.06
32039;BMP280;18549;42.286;22.688;2024-02-26T07:42:25;95145.06;;;12.11
32039;BMP280;18549;42.286;22.688;2024-02-26T07:44:52;95143.81;;;12.16
32039;BMP280;18549;42.286;22.688;2024-02-26T07:47:20;95137.44;;;12.23
32039;BMP280;18549;42.286;22.688;2024-02-26T07:49:48;95149.00;;;12.24
32039;BMP280;18549;42.286;22.688;2024-02-26T07:52:16;95147.38;;;12.23
32039;BMP280;18549;42.286;22.688;2024-02-26T07:54:47;95146.41;;;12.15
32039;BMP280;18549;42.286;22.688;2024-02-26T07:57:16;95141.66;;;12.12
32039;BMP280;18549;42.286;22.688;2024-02-26T07:59:44;95143.69;;;12.18
32039;BMP280;18549;42.286;22.688;2024-02-26T08:02:15;95147.19;;;12.26
32039;BMP280;18549;42.286;22.688;2024-02-26T08:04:41;95154.06;;;12.22
32039;BMP280;18549;42.286;22.688;2024-02-26T08:07:08;95153.97;;;12.13
32039;BMP280;18549;42.286;22.688;2024-02-26T08:09:35;95152.72;;;12.18
32039;BMP280;18549;42.286;22.688;2024-02-26T08:12:02;95149.09;;;12.22
32039;BMP280;18549;42.286;22.688;2024-02-26T08:14:31;95154.53;;;12.17
32039;BMP280;18549;42.286;22.688;2024-02-26T08:16:58;95147.97;;;12.26
32039;BMP280;18549;42.286;22.688;2024-02-26T08:19:25;95142.41;;;12.34
32039;BMP280;18549;42.286;22.688;2024-02-26T08:21:52;95138.78;;;12.38
32039;BMP280;18549;42.286;22.688;2024-02-26T08:24:21;95145.56;;;12.36
32039;BMP280;18549;42.286;22.688;2024-02-26T08:26:49;95142.28;;;12.35
32039;BMP280;18549;42.286;22.688;2024-02-26T08:29:15;95146.69;;;12.32
32039;BMP280;18549;42.286;22.688;2024-02-26T08:31:45;95150.59;;;12.45
32039;BMP280;18549;42.286;22.688;2024-02-26T08:34:12;95146.41;;;12.46
32039;BMP280;18549;42.286;22.688;2024-02-26T08:36:40;95142.78;;;12.50
32039;BMP280;18549;42.286;22.688;2024-02-26T08:39:08;95146.72;;;12.52
32039;BMP280;18549;42.286;22.688;2024-02-26T08:41:35;95143.22;;;12.54
32039;BMP280;18549;42.286;22.688;2024-02-26T08:44:02;95145.16;;;12.51
32039;BMP280;18549;42.286;22.688;2024-02-26T08:46:29;95144.34;;;12.51
32039;BMP280;18549;42.286;22.688;2024-02-26T08:49:00;95140.13;;;12.62
32039;BMP280;18549;42.286;22.688;2024-02-26T08:51:27;95132.75;;;12.71
32039;BMP280;18549;42.286;22.688;2024-02-26T08:53:54;95133.38;;;12.84
32039;BMP280;18549;42.286;22.688;2024-02-26T08:56:21;95137.22;;;12.88
32039;BMP280;18549;42.286;22.688;2024-02-26T08:58:49;95133.81;;;12.89
32039;BMP280;18549;42.286;22.688;2024-02-26T09:01:20;95136.56;;;12.75
32039;BMP280;18549;42.286;22.688;2024-02-26T09:03:49;95131.72;;;12.74
32039;BMP280;18549;42.286;22.688;2024-02-26T09:06:20;95136.81;;;12.72
32039;BMP280;18549;42.286;22.688;2024-02-26T09:08:46;95134.16;;;12.85
32039;BMP280;18549;42.286;22.688;2024-02-26T09:11:14;95129.75;;;12.88
32039;BMP280;18549;42.286;22.688;2024-02-26T09:13:44;95121.94;;;12.92
32039;BMP280;18549;42.286;22.688;2024-02-26T09:16:11;95124.06;;;12.97
32039;BMP280;18549;42.286;22.688;2024-02-26T09:18:39;95118.56;;;13.03
32039;BMP280;18549;42.286;22.688;2024-02-26T09:21:08;95122.41;;;13.07
32039;BMP280;18549;42.286;22.688;2024-02-26T09:23:41;95122.44;;;13.16
32039;BMP280;18549;42.286;22.688;2024-02-26T09:26:08;95124.31;;;13.23
32039;BMP280;18549;42.286;22.688;2024-02-26T09:28:35;95130.00;;;13.35
32039;BMP280;18549;42.286;22.688;2024-02-26T09:31:04;95132.13;;;13.39
32039;BMP280;18549;42.286;22.688;2024-02-26T09:33:32;95118.13;;;13.48
32039;BMP280;18549;42.286;22.688;2024-02-26T09:36:00;95122.75;;;13.52
32039;BMP280;18549;42.286;22.688;2024-02-26T09:38:27;95112.03;;;13.61
32039;BMP280;18549;42.286;22.688;2024-02-26T09:40:56;95108.63;;;13.62
32039;BMP280;18549;42.286;22.688;2024-02-26T09:43:23;95112.16;;;13.59
32039;BMP280;18549;42.286;22.688;2024-02-26T09:45:52;95106.78;;;13.64
32039;BMP280;18549;42.286;22.688;2024-02-26T09:48:19;95105.75;;;13.66
32039;BMP280;18549;42.286;22.688;2024-02-26T09:50:46;95109.06;;;13.76
32039;BMP280;18549;42.286;22.688;2024-02-26T09:53:18;95109.09;;;13.85
32039;BMP280;18549;42.286;22.688;2024-02-26T09:55:48;95103.06;;;13.88
32039;BMP280;18549;42.286;22.688;2024-02-26T09:58:16;95100.34;;;14.00
32039;BMP280;18549;42.286;22.688;2024-02-26T10:00:49;95099.31;;;14.03
32039;BMP280;18549;42.286;22.688;2024-02-26T10:03:21;95095.91;;;14.04
32039;BMP280;18549;42.286;22.688;2024-02-26T10:05:50;95094.06;;;14.06
32039;BMP280;18549;42.286;22.688;2024-02-26T10:08:23;95090.41;;;14.19
32039;BMP280;18549;42.286;22.688;2024-02-26T10:10:51;95094.88;;;14.34
32039;BMP280;18549;42.286;22.688;2024-02-26T10:13:20;95090.16;;;14.41
32039;BMP280;18549;42.286;22.688;2024-02-26T10:15:47;95074.66;;;14.47
32039;BMP280;18549;42.286;22.688;2024-02-26T10:18:16;95070.19;;;14.50
32039;BMP280;18549;42.286;22.688;2024-02-26T10:21:01;95077.28;;;14.45
32039;BMP280;18549;42.286;22.688;2024-02-26T10:23:29;95071.53;;;14.54
32039;BMP280;18549;42.286;22.688;2024-02-26T10:25:56;95069.16;;;14.52
32039;BMP280;18549;42.286;22.688;2024-02-26T10:28:29;95066.00;;;14.51
32039;BMP280;18549;42.286;22.688;2024-02-26T10:30:56;95069.03;;;14.45
32039;BMP280;18549;42.286;22.688;2024-02-26T10:33:24;95069.03;;;14.45
32039;BMP280;18549;42.286;22.688;2024-02-26T10:35:53;95065.09;;;14.52
32039;BMP280;18549;42.286;22.688;2024-02-26T10:38:22;95062.31;;;14.54
32039;BMP280;18549;42.286;22.688;2024-02-26T10:40:50;95061.78;;;14.60
32039;BMP280;18549;42.286;22.688;2024-02-26T10:43:18;95061.37;;;14.65
32039;BMP280;18549;42.286;22.688;2024-02-26T10:45:51;95064.91;;;14.72
32039;BMP280;18549;42.286;22.688;2024-02-26T10:48:19;95061.59;;;14.90
32039;BMP280;18549;42.286;22.688;2024-02-26T10:50:48;95058.06;;;14.83
32039;BMP280;18549;42.286;22.688;2024-02-26T10:53:20;95065.16;;;14.78
32039;BMP280;18549;42.286;22.688;2024-02-26T10:55:49;95060.44;;;14.75
32039;BMP280;18549;42.286;22.688;2024-02-26T10:58:20;95053.63;;;14.77
32039;BMP280;18549;42.286;22.688;2024-02-26T11:00:51;95051.50;;;14.82
32039;BMP280;18549;42.286;22.688;2024-02-26T11:03:20;95053.87;;;14.84
32039;BMP280;18549;42.286;22.688;2024-02-26T11:05:48;95052.00;;;14.85
32039;BMP280;18549;42.286;22.688;2024-02-26T11:08:18;95048.44;;;14.88
32039;BMP280;18549;42.286;22.688;2024-02-26T11:10:48;95042.19;;;14.84
32039;BMP280;18549;42.286;22.688;2024-02-26T11:13:18;95049.25;;;14.88
32039;BMP280;18549;42.286;22.688;2024-02-26T11:15:46;95037.56;;;14.89
32039;BMP280;18549;42.286;22.688;2024-02-26T11:18:16;95035.31;;;14.95
32039;BMP280;18549;42.286;22.688;2024-02-26T11:20:46;95029.34;;;15.06
32039;BMP280;18549;42.286;22.688;2024-02-26T11:23:15;95034.59;;;15.21
32039;BMP280;18549;42.286;22.688;2024-02-26T11:25:43;95043.50;;;15.24
32039;BMP280;18549;42.286;22.688;2024-02-26T11:28:13;95036.63;;;15.35
32039;BMP280;18549;42.286;22.688;2024-02-26T11:30:46;95030.31;;;15.31
32039;BMP280;18549;42.286;22.688;2024-02-26T11:33:21;95023.31;;;15.44
32039;BMP280;18549;42.286;22.688;2024-02-26T11:35:49;95025.38;;;15.49
32039;BMP280;18549;42.286;22.688;2024-02-26T11:38:17;95031.25;;;15.57
32039;BMP280;18549;42.286;22.688;2024-02-26T11:40:46;95019.78;;;15.64
32039;BMP280;18549;42.286;22.688;2024-02-26T11:43:15;95020.28;;;15.67
32039;BMP280;18549;42.286;22.688;2024-02-26T11:45:51;95022.88;;;15.75
32039;BMP280;18549;42.286;22.688;2024-02-26T11:48:25;95024.66;;;15.83
32039;BMP280;18549;42.286;22.688;2024-02-26T11:50:53;95016.31;;;15.91
32039;BMP280;18549;42.286;22.688;2024-02-26T11:53:23;95016.53;;;15.98
32039;BMP280;18549;42.286;22.688;2024-02-26T11:56:19;95020.69;;;16.07
32039;BMP280;18549;42.286;22.688;2024-02-26T11:58:53;95011.03;;;16.12
32039;BMP280;18549;42.286;22.688;2024-02-26T12:01:39;95007.38;;;16.06
32039;BMP280;18549;42.286;22.688;2024-02-26T12:04:13;95008.09;;;15.99
32039;BMP280;18549;42.286;22.688;2024-02-26T12:06:55;95010.66;;;15.89
32039;BMP280;18549;42.286;22.688;2024-02-26T12:09:37;95015.03;;;15.87
32039;BMP280;18549;42.286;22.688;2024-02-26T12:12:05;95009.03;;;15.81
32039;BMP280;18549;42.286;22.688;2024-02-26T12:14:40;94998.38;;;15.79
32039;BMP280;18549;42.286;22.688;2024-02-26T12:17:07;95001.81;;;15.78
32039;BMP280;18549;42.286;22.688;2024-02-26T12:19:46;95003.09;;;15.82
32039;BMP280;18549;42.286;22.688;2024-02-26T12:22:17;95005.81;;;15.88
32039;BMP280;18549;42.286;22.688;2024-02-26T12:24:45;95005.25;;;15.94
32039;BMP280;18549;42.286;22.688;2024-02-26T12:27:12;95000.47;;;16.00
32039;BMP280;18549;42.286;22.688;2024-02-26T12:29:40;94999.53;;;16.01
32039;BMP280;18549;42.286;22.688;2024-02-26T12:32:07;95011.31;;;15.91
32039;BMP280;18549;42.286;22.688;2024-02-26T12:34:35;95004.03;;;15.81
32039;BMP280;18549;42.286;22.688;2024-02-26T12:37:04;95010.56;;;15.82
32039;BMP280;18549;42.286;22.688;2024-02-26T12:39:33;95008.31;;;15.88
32039;BMP280;18549;42.286;22.688;2024-02-26T12:42:02;95004.59;;;16.09
32039;BMP280;18549;42.286;22.688;2024-02-26T12:44:31;95006.97;;;16.28
32039;BMP280;18549;42.286;22.688;2024-02-26T12:47:00;95001.75;;;16.21
32039;BMP280;18549;42.286;22.688;2024-02-26T12:49:29;95005.25;;;16.28
32039;BMP280;18549;42.286;22.688;2024-02-26T12:51:56;94998.41;;;16.30
32039;BMP280;18549;42.286;22.688;2024-02-26T12:54:30;94998.69;;;16.27
32039;BMP280;18549;42.286;22.688;2024-02-26T12:57:02;94989.75;;;16.25
32039;BMP280;18549;42.286;22.688;2024-02-26T12:59:33;94992.87;;;16.27
32039;BMP280;18549;42.286;22.688;2024-02-26T13:02:03;95001.91;;;16.20
32039;BMP280;18549;42.286;22.688;2024-02-26T13:04:31;94995.88;;;16.13
32039;BMP280;18549;42.286;22.688;2024-02-26T13:07:03;94998.53;;;16.12
32039;BMP280;18549;42.286;22.688;2024-02-26T13:09:34;94991.81;;;16.12
32039;BMP280;18549;42.286;22.688;2024-02-26T13:12:04;94990.88;;;16.13
32039;BMP280;18549;42.286;22.688;2024-02-26T13:14:32;94993.81;;;16.09
32039;BMP280;18549;42.286;22.688;2024-02-26T13:17:00;94993.03;;;16.08
32039;BMP280;18549;42.286;22.688;2024-02-26T13:19:30;94996.91;;;16.03
32039;BMP280;18549;42.286;22.688;2024-02-26T13:22:04;94995.47;;;16.00
32039;BMP280;18549;42.286;22.688;2024-02-26T13:24:34;95004.72;;;15.90
32039;BMP280;18549;42.286;22.688;2024-02-26T13:27:01;94997.75;;;15.94
32039;BMP280;18549;42.286;22.688;2024-02-26T13:29:32;94994.03;;;15.98
32039;BMP280;18549;42.286;22.688;2024-02-26T13:31:59;95002.63;;;15.95
32039;BMP280;18549;42.286;22.688;2024-02-26T13:34:29;95004.94;;;15.97
32039;BMP280;18549;42.286;22.688;2024-02-26T13:36:58;95004.19;;;15.96
32039;BMP280;18549;42.286;22.688;2024-02-26T13:39:26;94997.81;;;16.02
32039;BMP280;18549;42.286;22.688;2024-02-26T13:41:54;94995.53;;;16.08
32039;BMP280;18549;42.286;22.688;2024-02-26T13:44:23;94992.19;;;16.17
32039;BMP280;18549;42.286;22.688;2024-02-26T13:46:50;94998.06;;;16.25
32039;BMP280;18549;42.286;22.688;2024-02-26T13:49:17;94998.53;;;16.29
32039;BMP280;18549;42.286;22.688;2024-02-26T13:51:45;94993.87;;;16.34
32039;BMP280;18549;42.286;22.688;2024-02-26T13:54:13;94995.94;;;16.38
32039;BMP280;18549;42.286;22.688;2024-02-26T13:56:41;94997.22;;;16.42
32039;BMP280;18549;42.286;22.688;2024-02-26T13:59:11;95000.37;;;16.44
32039;BMP280;18549;42.286;22.688;2024-02-26T14:01:39;94994.59;;;16.44
32039;BMP280;18549;42.286;22.688;2024-02-26T14:04:07;94996.59;;;16.40
32039;BMP280;18549;42.286;22.688;2024-02-26T14:06:36;94996.16;;;16.45
32039;BMP280;18549;42.286;22.688;2024-02-26T14:09:04;94999.00;;;16.50